Time;durP1;ratioP1;P1;durP2;ratioP2;P2;SDS_P1;SDS_P2;PMS_P1;PMS_P2;Temp;Humidity;BMP_temperature;BMP_pressure;BME280_temperature;BME280_humidity;BME280_pressure;Samples;Min_cycle;Max_cycle;Signal;HPM_P1;HPM_P2
2023/04/30 00:01:20;;;;;;;1.05;0.40;;;;;;;17.35;60.49;101398.38;5032329;28;20555;-47
2023/04/30 00:03:46;;;;;;;1.52;0.60;;;;;;;17.34;60.53;101404.88;5033575;28;20017;-48
2023/04/30 00:06:13;;;;;;;1.98;0.75;;;;;;;17.33;60.65;101404.03;5034037;28;20079;-49
2023/04/30 00:08:39;;;;;;;2.53;0.50;;;;;;;16.99;61.70;101403.00;5026053;28;20064;-49
2023/04/30 00:11:05;;;;;;;2.15;0.70;;;;;;;16.90;63.05;101399.00;5014224;28;20032;-49
2023/04/30 00:13:32;;;;;;;1.33;0.50;;;;;;;16.86;62.30;101403.22;5030159;28;20029;-47
2023/04/30 00:15:58;;;;;;;2.42;0.68;;;;;;;16.85;62.18;101398.88;5033940;28;20061;-48
2023/04/30 00:18:24;;;;;;;1.95;0.65;;;;;;;16.89;62.07;101405.47;5033382;28;20033;-48
2023/04/30 00:20:52;;;;;;;2.92;0.85;;;;;;;16.52;63.66;101392.09;5033602;28;20072;-48
2023/04/30 00:23:18;;;;;;;3.33;0.80;;;;;;;16.61;64.20;101389.88;5033596;28;20036;-47
2023/04/30 00:25:44;;;;;;;4.43;0.90;;;;;;;16.47;64.48;101386.56;5033722;28;20364;-46
2023/04/30 00:28:11;;;;;;;1.90;0.65;;;;;;;15.98;65.30;101399.31;5033567;28;20477;-48
2023/04/30 00:30:37;;;;;;;3.08;0.85;;;;;;;16.34;64.79;101397.56;5033238;28;20068;-45
2023/04/30 00:33:04;;;;;;;2.03;0.70;;;;;;;16.47;63.76;101399.25;5022950;28;20092;-46
2023/04/30 00:35:30;;;;;;;2.75;0.80;;;;;;;16.40;64.60;101391.25;5015760;28;20059;-50
2023/04/30 00:37:56;;;;;;;5.72;1.70;;;;;;;16.32;64.68;101386.16;5012952;28;20025;-46
2023/04/30 00:40:23;;;;;;;2.45;0.82;;;;;;;16.09;65.90;101384.22;5028891;28;20033;-48
2023/04/30 00:42:51;;;;;;;5.72;1.35;;;;;;;15.88;66.29;101382.00;5014695;28;20034;-47
2023/04/30 00:45:20;;;;;;;2.28;0.95;;;;;;;15.95;66.16;101380.88;5013558;28;20033;-45
2023/04/30 00:47:47;;;;;;;3.05;0.95;;;;;;;15.73;66.60;101380.53;5032251;28;20032;-45
2023/04/30 00:50:15;;;;;;;3.03;1.08;;;;;;;15.88;67.01;101376.59;5033011;28;20037;-48
2023/04/30 00:52:44;;;;;;;1.88;0.98;;;;;;;15.57;67.80;101371.16;5033116;28;20453;-48
2023/04/30 00:55:13;;;;;;;2.28;1.05;;;;;;;15.77;67.32;101370.13;5018807;28;20025;-47
2023/04/30 00:57:40;;;;;;;4.38;1.05;;;;;;;15.91;67.29;101378.84;5014790;28;20030;-47
2023/04/30 01:00:10;;;;;;;3.53;1.02;;;;;;;15.87;67.51;101372.25;5032791;28;20488;-49
2023/04/30 01:02:40;;;;;;;3.95;0.98;;;;;;;15.70;68.14;101378.28;5023109;28;20065;-46
2023/04/30 01:05:07;;;;;;;3.03;1.00;;;;;;;15.59;67.97;101366.34;5013862;28;20073;-50
2023/04/30 01:07:37;;;;;;;4.90;1.10;;;;;;;15.62;67.85;101366.97;5012827;28;20054;-48
2023/04/30 01:10:05;;;;;;;2.92;1.15;;;;;;;15.64;67.95;101375.66;5019544;28;20062;-47
2023/04/30 01:12:53;;;;;;;2.60;1.15;;;;;;;15.42;69.65;101368.00;5032000;28;20037;-45
2023/04/30 01:15:31;;;;;;;4.05;1.50;;;;;;;15.39;69.98;101368.47;5032636;28;20033;-45
2023/04/30 01:18:12;;;;;;;2.20;1.30;;;;;;;15.24;69.69;101365.31;5089541;27;20475;-44
2023/04/30 01:20:49;;;;;;;3.33;1.40;;;;;;;15.12;70.81;101357.13;5089455;28;20384;-47
2023/04/30 01:23:37;;;;;;;2.92;1.55;;;;;;;14.94;71.58;101371.44;5087629;28;20029;-48
2023/04/30 01:26:15;;;;;;;2.63;1.27;;;;;;;15.19;70.93;101367.84;5092145;28;20036;-47
2023/04/30 01:28:49;;;;;;;5.53;1.92;;;;;;;15.01;71.58;101365.97;5089024;28;20472;-48
2023/04/30 01:31:18;;;;;;;3.42;1.65;;;;;;;15.13;71.23;101366.06;5089001;28;20062;-48
2023/04/30 01:33:45;;;;;;;4.15;1.40;;;;;;;14.93;71.76;101364.38;5088485;28;20017;-48
2023/04/30 01:36:25;;;;;;;2.67;1.23;;;;;;;14.75;73.04;101356.25;5088901;28;20129;-47
2023/04/30 01:39:19;;;;;;;5.32;1.77;;;;;;;14.82;72.85;101362.38;5088856;28;20106;-48
2023/04/30 01:42:12;;;;;;;5.18;1.35;;;;;;;14.81;73.02;101360.75;5081970;28;20036;-49
2023/04/30 01:44:56;;;;;;;4.40;1.90;;;;;;;14.84;73.09;101368.41;5084544;28;20037;-50
2023/04/30 01:47:39;;;;;;;6.28;2.17;;;;;;;14.84;73.18;101367.59;5077503;28;20037;-50
2023/04/30 01:50:22;;;;;;;3.00;1.33;;;;;;;14.77;72.27;101359.56;5068424;28;20131;-46
2023/04/30 01:52:56;;;;;;;4.45;1.83;;;;;;;14.72;73.53;101362.91;5067505;28;20365;-49
2023/04/30 01:55:26;;;;;;;4.80;1.90;;;;;;;14.87;73.10;101365.25;5063268;28;20138;-49
2023/04/30 01:58:00;;;;;;;6.10;1.75;;;;;;;14.83;73.30;101368.63;5087249;28;20074;-46
2023/04/30 02:00:29;;;;;;;5.85;2.10;;;;;;;14.60;73.77;101356.56;5069888;28;20033;-45
2023/04/30 02:02:56;;;;;;;5.38;1.95;;;;;;;14.61;73.74;101360.13;5067860;28;20063;-45
2023/04/30 02:05:22;;;;;;;3.42;1.77;;;;;;;14.82;72.61;101351.63;5055070;28;20029;-49
2023/04/30 02:07:50;;;;;;;5.82;1.70;;;;;;;14.79;72.82;101354.75;5063708;28;20427;-49
2023/04/30 02:10:20;;;;;;;4.45;2.15;;;;;;;14.67;72.61;101349.28;5075834;28;20093;-46
2023/04/30 02:12:46;;;;;;;4.55;1.98;;;;;;;14.63;72.85;101358.00;5085324;28;20020;-46
2023/04/30 02:15:12;;;;;;;3.25;2.17;;;;;;;14.53;72.96;101347.72;5057206;28;20510;-43
2023/04/30 02:17:39;;;;;;;3.25;2.00;;;;;;;14.36;74.22;101357.38;5059129;28;20127;-43
2023/04/30 02:20:06;;;;;;;5.22;2.25;;;;;;;14.12;75.29;101364.38;5068039;28;20032;-44
2023/04/30 02:22:33;;;;;;;6.53;2.20;;;;;;;14.57;73.47;101356.22;5067777;28;20044;-44
2023/04/30 02:24:59;;;;;;;5.22;2.35;;;;;;;14.40;73.51;101353.19;5057532;28;20032;-46
2023/04/30 02:27:26;;;;;;;5.45;2.50;;;;;;;14.28;74.40;101363.84;5044879;28;20029;-49
2023/04/30 02:29:53;;;;;;;3.53;2.00;;;;;;;14.31;74.05;101352.63;5034501;28;20113;-47
2023/04/30 02:32:19;;;;;;;4.63;2.60;;;;;;;14.18;74.70;101344.66;5034419;28;20491;-43
2023/04/30 02:34:45;;;;;;;6.10;1.83;;;;;;;13.77;76.83;101343.25;5042108;28;20040;-47
2023/04/30 02:37:11;;;;;;;6.60;2.35;;;;;;;13.44;78.73;101349.59;5044046;28;20083;-45
2023/04/30 02:39:38;;;;;;;5.70;2.22;;;;;;;13.71;77.78;101352.16;5065475;28;20024;-47
2023/04/30 02:42:05;;;;;;;6.63;2.20;;;;;;;13.43;78.51;101339.84;5054251;28;20025;-47
2023/04/30 02:44:32;;;;;;;4.60;2.17;;;;;;;13.43;78.37;101358.66;5054167;28;20029;-47
2023/04/30 02:46:59;;;;;;;4.30;2.38;;;;;;;13.09;79.95;101356.25;5053723;28;20025;-47
2023/04/30 02:49:25;;;;;;;9.45;2.95;;;;;;;13.10;80.16;101349.84;5053014;28;20025;-44
2023/04/30 02:51:52;;;;;;;7.47;2.67;;;;;;;12.88;80.62;101347.41;5055347;28;20064;-46
2023/04/30 02:54:18;;;;;;;8.23;2.40;;;;;;;12.92;80.79;101337.88;5055818;28;20048;-44
2023/04/30 02:56:46;;;;;;;7.00;2.88;;;;;;;12.89;81.24;101341.00;5060955;28;20027;-47
2023/04/30 02:59:13;;;;;;;6.30;2.88;;;;;;;12.48;83.13;101348.44;5057472;28;20377;-46
2023/04/30 03:01:39;;;;;;;4.93;3.00;;;;;;;12.48;82.55;101345.78;5053984;28;20025;-45
2023/04/30 03:04:05;;;;;;;7.28;3.38;;;;;;;12.21;84.05;101348.41;5053803;28;20061;-48
2023/04/30 03:06:32;;;;;;;5.40;3.10;;;;;;;12.28;83.79;101343.91;5053902;28;20056;-47
2023/04/30 03:08:59;;;;;;;4.88;2.90;;;;;;;12.10;84.92;101352.56;5060713;28;20028;-46
2023/04/30 03:11:26;;;;;;;8.43;3.65;;;;;;;12.03;85.20;101351.69;5045627;28;20037;-47
2023/04/30 03:13:52;;;;;;;6.47;3.05;;;;;;;12.07;85.28;101352.94;5033780;28;20029;-44
2023/04/30 03:16:20;;;;;;;4.80;3.88;;;;;;;12.10;84.97;101357.94;5051747;28;20041;-43
2023/04/30 03:18:48;;;;;;;9.35;4.50;;;;;;;11.96;85.59;101363.44;5053893;28;20021;-45
2023/04/30 03:21:14;;;;;;;6.93;3.60;;;;;;;11.94;85.73;101368.16;5051624;28;20048;-46
2023/04/30 03:23:41;;;;;;;9.10;4.15;;;;;;;11.93;85.50;101363.84;5053003;28;20025;-45
2023/04/30 03:26:07;;;;;;;7.20;3.88;;;;;;;11.83;85.47;101373.13;5054787;28;20063;-47
2023/04/30 03:28:34;;;;;;;10.88;3.90;;;;;;;11.79;85.77;101368.31;5053417;28;20033;-43
2023/04/30 03:31:04;;;;;;;8.15;3.47;;;;;;;11.64;86.13;101377.31;5053795;28;20550;-47
2023/04/30 03:33:31;;;;;;;6.10;3.60;;;;;;;11.64;86.33;101381.88;5051773;28;20034;-46
2023/04/30 03:35:57;;;;;;;7.32;3.50;;;;;;;11.62;86.15;101397.34;5064208;28;20055;-43
2023/04/30 03:38:23;;;;;;;6.70;3.75;;;;;;;11.59;85.83;101387.81;5055440;28;20079;-45
2023/04/30 03:40:50;;;;;;;10.10;4.03;;;;;;;11.52;86.18;101397.69;5049198;28;20029;-44
2023/04/30 03:43:16;;;;;;;8.82;4.00;;;;;;;11.49;86.43;101402.63;5060213;28;20047;-45
2023/04/30 03:45:42;;;;;;;8.82;4.15;;;;;;;11.48;85.87;101406.31;5052741;28;20334;-43
2023/04/30 03:48:08;;;;;;;7.65;3.65;;;;;;;11.46;86.20;101405.72;5052135;28;20025;-43
2023/04/30 03:50:35;;;;;;;9.52;3.38;;;;;;;11.45;85.65;101402.19;5052976;28;20029;-43
2023/04/30 03:53:01;;;;;;;10.52;3.70;;;;;;;11.47;85.75;101400.13;5052741;28;20025;-45
2023/04/30 03:55:27;;;;;;;7.15;3.67;;;;;;;11.43;84.98;101400.72;5052954;28;20353;-43
2023/04/30 03:57:54;;;;;;;7.78;3.35;;;;;;;11.57;84.57;101410.50;5052667;28;20032;-42
2023/04/30 04:00:20;;;;;;;7.03;3.67;;;;;;;11.49;84.69;101413.34;5051930;28;20032;-43
2023/04/30 04:02:46;;;;;;;7.10;3.40;;;;;;;11.49;84.81;101419.56;5052820;28;20071;-46
2023/04/30 04:05:13;;;;;;;11.95;4.00;;;;;;;11.42;85.32;101423.19;5052680;28;20124;-43
2023/04/30 04:07:39;;;;;;;11.10;3.45;;;;;;;11.54;84.54;101426.97;5052431;28;20092;-44
2023/04/30 04:10:06;;;;;;;7.35;3.13;;;;;;;11.51;84.49;101435.44;5052592;28;20025;-45
2023/04/30 04:12:32;;;;;;;6.85;3.60;;;;;;;11.33;84.82;101431.41;5052632;28;20400;-44
2023/04/30 04:14:59;;;;;;;3.90;3.22;;;;;;;11.39;84.78;101434.34;5052508;28;20093;-43
2023/04/30 04:17:25;;;;;;;8.52;4.05;;;;;;;11.21;85.28;101432.97;5052114;28;20048;-45
2023/04/30 04:19:51;;;;;;;5.25;3.28;;;;;;;11.33;84.85;101436.78;5052520;28;20029;-44
2023/04/30 04:22:17;;;;;;;6.53;3.78;;;;;;;11.28;85.08;101433.84;5053045;28;20037;-44
2023/04/30 04:24:43;;;;;;;7.45;4.07;;;;;;;11.23;85.50;101430.94;5052687;28;20489;-47
2023/04/30 04:27:10;;;;;;;8.98;3.85;;;;;;;11.17;86.03;101437.06;5052038;28;20035;-46
2023/04/30 04:29:36;;;;;;;11.52;3.45;;;;;;;11.17;85.42;101434.41;5051914;28;20151;-43
2023/04/30 04:32:04;;;;;;;11.85;3.88;;;;;;;11.21;84.84;101438.31;5051154;28;20108;-44
2023/04/30 04:34:32;;;;;;;7.88;3.72;;;;;;;11.18;85.17;101429.88;5051981;28;20381;-43
2023/04/30 04:36:58;;;;;;;10.95;4.13;;;;;;;11.09;85.92;101426.50;5046481;28;20033;-44
2023/04/30 04:39:24;;;;;;;8.77;4.13;;;;;;;11.19;85.80;101429.66;5053644;28;20485;-46
2023/04/30 04:41:50;;;;;;;6.97;3.58;;;;;;;11.12;85.82;101425.28;5052102;28;20378;-47
2023/04/30 04:44:17;;;;;;;7.90;3.80;;;;;;;11.11;85.46;101437.84;5048387;28;20052;-42
2023/04/30 04:46:44;;;;;;;5.97;3.55;;;;;;;11.19;85.17;101434.19;5047921;28;20029;-44
2023/04/30 04:49:11;;;;;;;9.50;3.63;;;;;;;11.08;86.02;101424.84;5053121;28;20025;-43
2023/04/30 04:51:38;;;;;;;8.73;3.72;;;;;;;10.87;86.18;101430.22;5041217;28;20099;-45
2023/04/30 04:54:05;;;;;;;9.43;3.55;;;;;;;11.01;85.50;101432.81;5035511;28;20029;-45
2023/04/30 04:56:31;;;;;;;7.88;3.38;;;;;;;10.91;85.88;101429.66;5054516;28;20492;-43
2023/04/30 04:58:58;;;;;;;6.82;3.55;;;;;;;10.88;86.05;101431.88;5051406;28;20033;-44
2023/04/30 05:01:24;;;;;;;6.82;3.22;;;;;;;10.91;86.00;101423.47;5051723;28;20067;-43
2023/04/30 05:03:52;;;;;;;10.63;3.90;;;;;;;10.93;86.13;101421.41;5040590;28;20033;-43
2023/04/30 05:06:19;;;;;;;7.07;3.60;;;;;;;10.89;86.72;101417.50;5032745;28;20037;-42
2023/04/30 05:08:45;;;;;;;14.52;3.55;;;;;;;10.88;86.56;101429.19;5049953;28;20048;-46
2023/04/30 05:11:11;;;;;;;8.30;3.20;;;;;;;10.83;86.45;101433.31;5051504;28;20469;-43
2023/04/30 05:13:37;;;;;;;10.27;3.30;;;;;;;10.87;86.35;101428.38;5051529;28;20037;-46
2023/04/30 05:16:04;;;;;;;5.78;3.20;;;;;;;10.79;87.02;101428.53;5051407;28;20041;-44
2023/04/30 05:18:30;;;;;;;11.95;3.20;;;;;;;10.81;86.92;101429.97;5051269;28;20099;-43
2023/04/30 05:20:57;;;;;;;5.65;3.13;;;;;;;10.77;86.82;101426.06;5051548;28;20112;-43
2023/04/30 05:23:23;;;;;;;8.10;2.88;;;;;;;10.74;87.23;101431.78;5050128;28;20119;-42
2023/04/30 05:25:53;;;;;;;8.57;3.10;;;;;;;10.80;86.83;101431.00;5051475;28;20029;-42
2023/04/30 05:28:19;;;;;;;7.72;2.53;;;;;;;10.80;86.86;101431.00;5051323;28;20096;-42
2023/04/30 05:30:45;;;;;;;9.02;3.03;;;;;;;10.80;86.96;101427.50;5051378;28;20025;-47
2023/04/30 05:33:11;;;;;;;7.53;3.45;;;;;;;10.75;87.09;101444.13;5051508;28;20035;-42
2023/04/30 05:35:38;;;;;;;7.50;3.38;;;;;;;10.86;86.29;101434.75;5051557;28;20346;-43
2023/04/30 05:38:04;;;;;;;8.75;2.88;;;;;;;10.83;86.58;101446.69;5051258;28;20037;-47
2023/04/30 05:40:30;;;;;;;4.55;2.53;;;;;;;10.82;86.88;101431.63;5048673;28;20021;-45
2023/04/30 05:42:57;;;;;;;9.20;3.38;;;;;;;10.82;86.53;101436.97;5051506;28;20029;-42
2023/04/30 05:45:23;;;;;;;6.60;2.65;;;;;;;10.78;86.60;101425.03;5051158;28;20032;-46
2023/04/30 05:47:49;;;;;;;7.53;3.17;;;;;;;10.87;86.14;101427.56;5051276;28;20028;-46
2023/04/30 05:50:16;;;;;;;5.63;2.25;;;;;;;10.84;85.76;101434.97;5038117;28;20384;-43
2023/04/30 05:52:42;;;;;;;11.02;2.88;;;;;;;10.77;86.74;101430.56;5051406;28;20025;-46
2023/04/30 05:55:09;;;;;;;9.05;2.60;;;;;;;10.77;86.26;101428.72;5051263;28;20499;-44
2023/04/30 05:57:36;;;;;;;6.00;2.78;;;;;;;10.74;86.57;101426.41;5050745;28;20044;-45
2023/04/30 06:00:05;;;;;;;7.68;2.78;;;;;;;10.77;86.42;101423.38;5050021;28;20032;-47
2023/04/30 06:02:31;;;;;;;6.68;3.00;;;;;;;10.72;86.55;101423.13;5050435;28;20028;-45
2023/04/30 06:04:58;;;;;;;7.50;2.63;;;;;;;10.81;86.12;101432.66;5056735;28;20040;-45
2023/04/30 06:07:24;;;;;;;5.78;2.90;;;;;;;10.82;86.35;101430.81;5054656;28;20048;-43
2023/04/30 06:09:50;;;;;;;7.88;3.03;;;;;;;10.80;86.38;101428.31;5055158;28;20033;-43
2023/04/30 06:12:16;;;;;;;7.10;2.88;;;;;;;10.76;86.98;101420.88;5039044;28;20112;-47
2023/04/30 06:14:44;;;;;;;4.57;2.90;;;;;;;10.81;87.13;101419.25;5042532;28;20413;-43
2023/04/30 06:17:12;;;;;;;9.15;3.20;;;;;;;10.78;87.05;101422.34;5047442;28;20183;-42
2023/04/30 06:19:38;;;;;;;7.32;2.95;;;;;;;10.68;87.22;101416.47;5052422;28;20025;-46
2023/04/30 06:22:05;;;;;;;5.78;2.75;;;;;;;10.68;87.55;101411.13;5034764;28;20033;-44
2023/04/30 06:24:31;;;;;;;6.43;3.15;;;;;;;10.65;87.62;101416.84;5034773;28;20478;-43
2023/04/30 06:26:57;;;;;;;7.60;2.70;;;;;;;10.70;87.66;101409.06;5039686;28;20037;-43
2023/04/30 06:29:23;;;;;;;8.18;3.03;;;;;;;10.79;87.46;101413.28;5064359;28;20068;-43
2023/04/30 06:31:51;;;;;;;10.40;3.03;;;;;;;10.61;88.56;101414.78;5054248;28;20036;-45
2023/04/30 06:34:18;;;;;;;9.52;3.28;;;;;;;10.77;87.72;101409.97;5053631;28;20037;-47
2023/04/30 06:36:45;;;;;;;6.35;3.20;;;;;;;10.76;87.51;101402.94;5054206;28;20060;-42
2023/04/30 06:39:14;;;;;;;11.90;3.83;;;;;;;10.67;88.21;101400.63;5054379;28;20128;-45
2023/04/30 06:41:41;;;;;;;11.77;3.58;;;;;;;10.72;87.20;101403.56;5054086;28;20075;-43
2023/04/30 06:44:10;;;;;;;9.95;2.95;;;;;;;10.74;87.19;101404.19;5054319;28;20099;-43
2023/04/30 06:46:39;;;;;;;10.25;3.40;;;;;;;10.76;87.59;101405.63;5053101;28;20033;-43
2023/04/30 06:49:06;;;;;;;10.48;2.70;;;;;;;10.72;87.76;101407.06;5035610;28;20033;-45
2023/04/30 06:51:32;;;;;;;9.68;2.80;;;;;;;10.73;87.28;101403.34;5053970;28;20021;-42
2023/04/30 06:53:58;;;;;;;8.38;3.05;;;;;;;10.77;86.86;101409.97;5054125;28;20045;-44
2023/04/30 06:56:24;;;;;;;6.85;2.63;;;;;;;10.77;86.50;101398.41;5054054;28;20028;-45
2023/04/30 06:58:51;;;;;;;7.40;2.75;;;;;;;10.87;86.32;101408.81;5053678;28;20017;-45
2023/04/30 07:01:17;;;;;;;6.40;3.20;;;;;;;10.73;87.19;101410.56;5053911;28;20025;-42
2023/04/30 07:03:43;;;;;;;11.73;3.22;;;;;;;10.81;86.92;101408.56;5053876;28;20032;-43
2023/04/30 07:06:10;;;;;;;8.52;2.95;;;;;;;10.83;86.49;101403.03;5053482;28;20041;-46
2023/04/30 07:08:36;;;;;;;6.18;2.88;;;;;;;10.91;86.05;101397.50;5053413;28;20057;-44
2023/04/30 07:11:02;;;;;;;5.95;2.67;;;;;;;10.81;86.29;101394.34;5048776;28;20022;-44
2023/04/30 07:13:29;;;;;;;11.07;2.97;;;;;;;10.97;86.10;101404.75;5051628;28;20028;-45
2023/04/30 07:15:55;;;;;;;12.40;2.92;;;;;;;10.89;86.20;101401.44;5053094;28;20029;-44
2023/04/30 07:18:21;;;;;;;11.13;3.28;;;;;;;10.93;85.94;101403.50;5056597;28;20118;-42
2023/04/30 07:20:47;;;;;;;11.00;3.00;;;;;;;10.98;85.13;101401.06;5047982;28;20024;-43
2023/04/30 07:23:14;;;;;;;8.50;2.60;;;;;;;10.99;84.70;101401.88;5036335;28;20501;-42
2023/04/30 07:25:40;;;;;;;9.75;2.92;;;;;;;10.88;85.57;101399.75;5046774;28;20292;-46
2023/04/30 07:28:07;;;;;;;12.32;3.08;;;;;;;10.73;86.69;101399.84;5042026;28;20120;-44
2023/04/30 07:30:33;;;;;;;12.45;3.42;;;;;;;10.87;86.02;101398.09;5033920;28;20039;-43
2023/04/30 07:32:59;;;;;;;8.98;3.10;;;;;;;10.88;85.49;101389.84;5033570;28;20088;-43
2023/04/30 07:35:26;;;;;;;11.27;3.17;;;;;;;10.79;85.91;101388.38;5033558;28;20025;-43
2023/04/30 07:37:52;;;;;;;9.63;3.13;;;;;;;10.72;86.50;101398.19;5032798;28;20040;-44
2023/04/30 07:40:18;;;;;;;9.95;3.55;;;;;;;10.64;87.13;101388.44;5042089;28;20100;-45
2023/04/30 07:42:45;;;;;;;11.05;3.83;;;;;;;10.56;87.51;101393.94;5053333;28;20500;-44
2023/04/30 07:45:12;;;;;;;19.02;3.95;;;;;;;10.53;87.87;101392.47;5053268;28;20048;-44
2023/04/30 07:47:38;;;;;;;11.00;3.53;;;;;;;10.49;87.88;101398.38;5052578;28;20025;-43
2023/04/30 07:50:05;;;;;;;8.82;3.67;;;;;;;10.61;87.38;101393.38;5053057;28;20021;-46
2023/04/30 07:52:31;;;;;;;8.38;3.38;;;;;;;10.47;88.09;101403.09;5053087;28;20154;-42
2023/04/30 07:54:57;;;;;;;10.27;3.35;;;;;;;10.51;88.25;101401.72;5052822;28;20491;-45
2023/04/30 07:57:27;;;;;;;15.70;3.70;;;;;;;10.49;88.18;101398.38;5052282;28;20037;-46
2023/04/30 07:59:53;;;;;;;8.93;3.28;;;;;;;10.49;88.47;101401.06;5052960;28;20025;-44
2023/04/30 08:02:20;;;;;;;10.77;3.72;;;;;;;10.38;88.63;101390.88;5052782;28;20025;-43
2023/04/30 08:04:46;;;;;;;12.93;3.88;;;;;;;10.30;88.62;101392.66;5052907;28;20374;-44
2023/04/30 08:07:14;;;;;;;10.50;3.78;;;;;;;10.28;88.51;101394.69;5041608;28;20108;-42
2023/04/30 08:09:40;;;;;;;11.77;3.30;;;;;;;10.35;88.55;101388.59;5050912;28;20071;-42
2023/04/30 08:12:08;;;;;;;10.90;3.90;;;;;;;10.23;89.31;101390.91;5052549;28;20112;-43
2023/04/30 08:14:35;;;;;;;11.88;4.20;;;;;;;10.33;89.23;101391.47;5048601;28;20032;-42
2023/04/30 08:17:02;;;;;;;12.98;3.58;;;;;;;10.29;89.15;101393.69;5052297;28;20480;-44
2023/04/30 08:19:28;;;;;;;13.05;3.80;;;;;;;10.41;88.90;101390.50;5055473;28;20103;-42
2023/04/30 08:21:54;;;;;;;16.88;4.10;;;;;;;10.53;88.40;101378.25;5052370;28;20459;-42
2023/04/30 08:24:20;;;;;;;12.13;3.38;;;;;;;10.39;88.62;101385.34;5053178;28;20025;-44
2023/04/30 08:26:47;;;;;;;15.27;3.28;;;;;;;10.36;88.50;101383.03;5045255;28;20021;-46
2023/04/30 08:29:13;;;;;;;9.55;3.13;;;;;;;10.26;88.59;101380.66;5052075;28;20060;-46
2023/04/30 08:31:39;;;;;;;7.93;3.53;;;;;;;10.24;88.79;101360.50;5051927;28;20499;-44
2023/04/30 08:34:05;;;;;;;10.25;3.97;;;;;;;10.25;88.82;101368.31;5052281;28;20157;-43
2023/04/30 08:36:32;;;;;;;10.70;3.65;;;;;;;10.26;88.68;101372.63;5052232;28;20040;-42
2023/04/30 08:38:58;;;;;;;11.27;3.70;;;;;;;10.32;88.57;101363.84;5051823;28;20112;-43
2023/04/30 08:41:32;;;;;;;10.18;3.92;;;;;;;10.24;88.88;101361.31;5052113;28;20047;-43
2023/04/30 08:44:02;;;;;;;13.45;4.32;;;;;;;10.25;89.29;101349.59;5067075;28;20024;-43
2023/04/30 08:46:34;;;;;;;11.40;3.60;;;;;;;10.23;89.31;101361.47;5052008;28;20392;-45
2023/04/30 08:49:00;;;;;;;17.13;4.10;;;;;;;10.26;89.29;101358.44;5051619;28;20025;-43
2023/04/30 08:51:30;;;;;;;12.88;3.90;;;;;;;10.14;89.35;101357.25;5051962;28;20029;-44
2023/04/30 08:53:57;;;;;;;11.75;3.50;;;;;;;10.07;90.26;101351.84;5051899;28;20021;-43
2023/04/30 08:56:24;;;;;;;10.98;3.63;;;;;;;10.11;89.97;101357.66;5051938;28;20021;-44
2023/04/30 08:58:50;;;;;;;10.15;3.72;;;;;;;10.16;89.39;101345.38;5051551;28;20041;-43
2023/04/30 09:01:16;;;;;;;10.00;3.85;;;;;;;10.12;89.31;101344.09;5051954;28;20017;-42
2023/04/30 09:03:43;;;;;;;11.30;4.20;;;;;;;10.05;89.59;101335.19;5032891;28;20025;-43
2023/04/30 09:06:09;;;;;;;12.27;3.95;;;;;;;10.04;89.57;101339.66;5048116;28;20025;-45
2023/04/30 09:08:45;;;;;;;12.65;3.92;;;;;;;10.01;89.44;101326.69;5050943;28;20446;-42
2023/04/30 09:11:26;;;;;;;11.43;3.78;;;;;;;10.08;89.25;101331.28;5051793;28;20025;-44
2023/04/30 09:13:56;;;;;;;9.38;3.90;;;;;;;10.08;89.02;101334.78;5051453;28;20021;-44
2023/04/30 09:16:23;;;;;;;12.18;4.22;;;;;;;10.05;89.40;101335.19;5051418;28;20076;-41
2023/04/30 09:18:50;;;;;;;13.98;4.13;;;;;;;10.10;89.06;101327.38;5051070;28;20388;-43
2023/04/30 09:21:16;;;;;;;9.73;3.90;;;;;;;10.01;89.67;101326.69;5032273;28;20489;-44
2023/04/30 09:23:57;;;;;;;15.50;4.82;;;;;;;9.96;89.99;101317.59;5051363;28;20366;-47
2023/04/30 09:26:37;;;;;;;10.27;4.20;;;;;;;10.02;90.15;101317.66;5050824;28;20039;-42
2023/04/30 09:29:09;;;;;;;13.35;4.28;;;;;;;9.90;91.00;101326.38;5052813;28;20066;-44
2023/04/30 09:31:39;;;;;;;12.73;4.45;;;;;;;9.94;90.31;101320.47;5051217;28;20150;-43
2023/04/30 09:34:06;;;;;;;15.32;4.00;;;;;;;9.94;90.62;101320.47;5051632;28;20116;-45
2023/04/30 09:36:33;;;;;;;15.70;4.28;;;;;;;9.90;90.92;101324.53;5051366;28;20465;-43
2023/04/30 09:39:16;;;;;;;15.02;4.40;;;;;;;9.92;91.33;101321.66;5053287;28;20048;-42
2023/04/30 09:41:43;;;;;;;12.15;4.30;;;;;;;9.88;91.42;101325.72;5062887;23;20028;-42
2023/04/30 09:44:29;;;;;;;16.63;3.95;;;;;;;10.02;91.11;101312.31;5034516;28;20041;-42
2023/04/30 09:46:58;;;;;;;15.02;4.10;;;;;;;10.05;91.33;101308.44;5040051;28;20400;-42
2023/04/30 09:49:26;;;;;;;13.40;4.30;;;;;;;10.14;90.83;101306.44;5037264;28;20385;-43
2023/04/30 09:52:01;;;;;;;13.43;4.40;;;;;;;10.07;90.51;101309.06;5055240;28;20071;-43
2023/04/30 09:54:31;;;;;;;8.93;3.97;;;;;;;10.09;89.96;101304.34;5055190;28;20032;-45
2023/04/30 09:57:00;;;;;;;8.27;4.40;;;;;;;10.00;90.61;101303.66;5040273;28;20128;-44
2023/04/30 09:59:38;;;;;;;21.10;4.93;;;;;;;10.04;90.84;101304.91;5035102;28;20432;-44
2023/04/30 10:02:08;;;;;;;12.73;4.00;;;;;;;10.03;91.60;101308.59;5029903;28;20061;-45
2023/04/30 10:04:37;;;;;;;11.95;4.32;;;;;;;10.14;90.90;101315.28;5015511;28;20026;-42
2023/04/30 10:07:11;;;;;;;19.00;4.85;;;;;;;10.17;90.57;101316.78;5015000;28;20022;-44
2023/04/30 10:09:48;;;;;;;16.95;4.53;;;;;;;10.20;90.97;101314.53;5015241;28;20101;-43
2023/04/30 10:12:19;;;;;;;13.27;4.15;;;;;;;10.13;90.74;101310.97;5015751;28;20084;-44
2023/04/30 10:14:52;;;;;;;9.38;3.97;;;;;;;10.11;90.49;101304.16;5034975;28;20079;-46
2023/04/30 10:17:24;;;;;;;12.80;4.18;;;;;;;10.13;90.79;101307.47;5034521;28;20064;-42
2023/04/30 10:19:54;;;;;;;15.35;4.35;;;;;;;10.15;90.99;101303.56;5035016;28;20025;-44
2023/04/30 10:22:21;;;;;;;10.10;4.00;;;;;;;10.15;90.02;101303.56;5035077;28;20138;-44
2023/04/30 10:24:49;;;;;;;10.32;3.53;;;;;;;10.16;89.55;101296.38;5034818;28;20053;-45
2023/04/30 10:27:15;;;;;;;12.90;3.95;;;;;;;10.25;89.82;101303.28;5034516;28;20492;-44
2023/04/30 10:29:42;;;;;;;13.68;4.95;;;;;;;10.10;91.11;101308.66;5032051;28;20033;-43
2023/04/30 10:32:12;;;;;;;12.32;4.47;;;;;;;10.19;91.56;101312.03;5033752;28;20026;-44
2023/04/30 10:34:49;;;;;;;11.82;3.90;;;;;;;10.17;91.95;101306.91;5033147;28;20029;-44
2023/04/30 10:37:21;;;;;;;13.45;4.05;;;;;;;10.33;90.68;101300.47;5032077;28;20073;-44
2023/04/30 10:39:48;;;;;;;9.73;4.00;;;;;;;10.18;90.91;101299.69;5036013;28;20026;-43
2023/04/30 10:42:14;;;;;;;13.35;4.47;;;;;;;10.17;91.03;101298.03;5047663;28;20053;-43
2023/04/30 10:44:40;;;;;;;15.73;5.63;;;;;;;10.14;91.49;101298.41;5054078;28;20078;-43
2023/04/30 10:47:08;;;;;;;12.45;5.10;;;;;;;10.24;90.54;101302.44;5053694;28;20032;-43
2023/04/30 10:49:34;;;;;;;14.38;5.15;;;;;;;10.27;90.19;101303.91;5053163;28;20454;-43
2023/04/30 10:52:02;;;;;;;11.63;5.13;;;;;;;10.35;90.44;101300.28;5054079;28;20025;-42
2023/04/30 10:54:36;;;;;;;11.07;4.75;;;;;;;10.38;90.72;101305.22;5054142;28;20025;-49
2023/04/30 10:57:13;;;;;;;9.23;4.10;;;;;;;10.31;90.08;101302.50;5053776;28;20029;-48
2023/04/30 11:00:13;;;;;;;14.05;3.90;;;;;;;10.34;89.86;101296.78;5053731;28;20389;-48
2023/04/30 11:02:43;;;;;;;13.23;3.58;;;;;;;10.34;89.86;101298.63;5004602;28;20049;-48
2023/04/30 11:05:19;;;;;;;8.52;3.47;;;;;;;10.28;89.41;101303.72;5050539;28;20029;-48
2023/04/30 11:07:55;;;;;;;6.30;3.60;;;;;;;10.25;89.18;101293.41;5033723;28;20029;-48
2023/04/30 11:10:27;;;;;;;11.55;4.45;;;;;;;10.25;89.72;101297.94;5033804;28;20067;-48
2023/04/30 11:12:54;;;;;;;7.55;3.95;;;;;;;10.24;90.18;101289.06;5033857;28;20496;-48
2023/04/30 11:15:41;;;;;;;10.85;3.50;;;;;;;10.23;90.23;101287.44;5033785;28;20076;-48
2023/04/30 11:18:08;;;;;;;12.65;4.05;;;;;;;10.08;90.67;101291.97;5033366;28;20036;-48
2023/04/30 11:20:40;;;;;;;8.77;3.63;;;;;;;10.20;90.22;101295.78;5036590;28;20495;-48
2023/04/30 11:23:21;;;;;;;10.95;3.72;;;;;;;10.13;91.22;101288.75;5053706;28;20029;-47
2023/04/30 11:25:48;;;;;;;13.82;4.38;;;;;;;10.19;90.76;101287.97;5053566;28;20108;-44
2023/04/30 11:28:20;;;;;;;9.38;4.03;;;;;;;10.11;91.20;101288.13;5053042;28;20033;-44